• Join FlightAware (Why Join?)
  • Login
  • US Flag 
08:43PM EST


 

Airport Tracker/Info


-or-


 

Live Flight TrackerFlight Track Log ✈ ASQ5208 ✈ 03-07-2013 ✈ KTRI - KATL

Flight Track Log - Related Links

Times and Time Zones

All times are in EDT time to prevent confusion due to time zone crossing. See the ASQ5208 flight status page for this flight to view local times or setup timezone preferences in your user account.

Time Position Orientation Groundspeed Altitude Reporting Facility
EDT Latitude Longitude Course Direction KTS MPH feet Rate Location/Type
07:47AM 36.3844 -82.5069 215° Southwest 201 231 5,000  Level Atlanta Center
07:48AM 36.3267 -82.5594 216° Southwest 246 283 8,100 2,460 Climbing Atlanta Center
07:49AM 36.2669 -82.6147 217° Southwest 264 304 10,000 1,500 Climbing Atlanta Center
07:50AM 36.1989 -82.6750 216° Southwest 289 333 11,200 1,320 Climbing Atlanta Center
07:51AM 36.1286 -82.7406 217° Southwest 316 364 12,700 1,500 Climbing Atlanta Center
07:52AM 36.1200 -82.7263 215° Southwest  Level FlightAware Approximate
07:52AM 36.0542 -82.8111 217° Southwest 329 379 14,300  Level Atlanta Center
07:53AM 36.0608 -82.7781 215° Southwest  Level FlightAware Approximate
07:53AM 35.9797 -82.8789 216° Southwest 340 391 15,800  Level Atlanta Center
07:54AM 35.9075 -82.9439 216° Southwest 332 382 17,300 1,380 Climbing Atlanta Center
07:55AM 35.8350 -83.0092 216° Southwest 332 382 18,600 1,380 Climbing Atlanta Center
07:56AM 35.7581 -83.0611 209° Southwest 332 382 20,100 1,500 Climbing Atlanta Center
07:57AM 35.6708 -83.0800 190° South 322 371 21,600 900 Climbing Atlanta Center
07:58AM 35.5833 -83.1017 191° South 322 371 22,000 180 Climbing Atlanta Center
07:59AM 35.4936 -83.1206 190° South 322 371 22,000  Level Atlanta Center
08:00AM 35.4083 -83.1392 190° South 322 371 22,000  Level Atlanta Center
08:01AM 35.3208 -83.1581 190° South 327 376 22,000  Level Atlanta Center
08:02AM 35.2353 -83.1792 191° South 315 362 22,000 -360 Level Atlanta Center
08:03AM 35.1478 -83.2006 191° South 315 362 21,300 -840 Descending Atlanta Center
08:04AM 35.0644 -83.2167 189° South 315 362 20,400 -660 Descending Atlanta Center
08:05AM 34.9792 -83.2378 191° South 315 362 20,000 -240 Descending Atlanta Center
08:06AM 34.8958 -83.2589 192° South 315 362 20,000  Level Atlanta Center
08:07AM 34.8144 -83.2722 188° South 315 362 20,000  Level Atlanta Center
08:08AM 34.7269 -83.2933 191° South 315 362 20,000 -420 Level Atlanta Center
08:09AM 34.6542 -83.3317 203° Southwest 309 356 19,200 -1,260 Descending Atlanta Center
08:10AM 34.5856 -83.3953 217° Southwest 310 357 17,500 -1,920 Descending Atlanta Center
08:11AM 34.5214 -83.4564 218° Southwest 310 357 15,400 -1,800 Descending Atlanta Center
08:12AM 34.4569 -83.5122 216° Southwest 292 336 14,000 -720 Descending Atlanta Center
08:13AM 34.3964 -83.5681 217° Southwest 286 329 14,000  Level Atlanta Center
08:14AM 34.3300 -83.6264 216° Southwest 301 346 14,000  Level Atlanta Center
08:15AM 34.2592 -83.6919 217° Southwest 311 358 14,000  Level Atlanta Center
08:16AM 34.1842 -83.7575 216° Southwest 321 369 14,000  Level Atlanta Center
08:17AM 34.1239 -83.8106 216° Southwest 321 369 14,000  Level Atlanta Center
08:18AM 34.0633 -83.8708 220° Southwest 299 344 14,000 -1,080 Level Atlanta Center
08:19AM 34.0000 -83.9333 219° Southwest 276 318 12,100 -1,140 Descending Atlanta TRACON
08:20AM 33.9500 -83.9833 220° Southwest 265 305 12,000 -60 Descending Atlanta TRACON
08:21AM 33.9000 -84.0333 220° Southwest 270 311 12,000  Level Atlanta TRACON
08:22AM 33.8500 -84.1000 228° Southwest 274 315 12,000  Level Atlanta TRACON
08:23AM 33.7833 -84.1500 212° Southwest 278 320 12,000  Level Atlanta TRACON
08:24AM 33.7333 -84.2167 228° Southwest 291 335 12,000 -300 Level Atlanta TRACON
08:25AM 33.7333 -84.3167 270° West 293 337 11,500 -1,200 Descending Atlanta TRACON
08:26AM 33.7333 -84.4000 270° West 291 335 9,600 -1,320 Descending Atlanta TRACON
08:27AM 33.7333 -84.5000 270° West 246 283 8,900 -1,200 Descending Atlanta TRACON
08:28AM 33.7333 -84.5833 270° West 237 273 7,300 -1,500 Descending Atlanta TRACON
08:29AM 33.7333 -84.6500 270° West 235 270 5,900 -1,140 Descending Atlanta TRACON
08:30AM 33.7333 -84.7333 270° West 227 261 5,100 -480 Descending Atlanta TRACON
08:31AM 33.7333 -84.8000 270° West 242 278 5,000 -60 Descending Atlanta TRACON
08:32AM 33.7167 -84.8667 253° West 233 268 5,000  Level Atlanta TRACON
08:33AM 33.6667 -84.8500 164° South 170 196 5,100  Climbing Atlanta TRACON
08:34AM 33.6500 -84.8000 112° Southeast 170 196 5,000 -60 Descending Atlanta TRACON
08:35AM 33.6500 -84.7333 90° East 181 208 5,000  Level Atlanta TRACON
08:36AM 33.6500 -84.6833 90° East 176 203 5,000 -600 Level Atlanta TRACON
08:37AM 33.6500 -84.6167 90° East 174 200 3,900 -1,020 Descending Atlanta TRACON
08:38AM 33.6500 -84.5667 90° East 179 206 3,000 -900 Descending Atlanta TRACON
08:39AM 33.6500 -84.5167 90° East 143 165 2,200 -780 Descending Atlanta TRACON
08:40AM 33.6500 -84.4667 90° East 140 161 1,500 -720 Descending Atlanta TRACON
08:42AM 33.6367 -84.4279 64° Northeast  Level Estimated